sensor_id;sensor_type;location;lat;lon;timestamp;P1;durP1;ratioP1;P2;durP2;ratioP2
66567;SDS011;53422;49.296;6.900;2023-04-24T00:02:15;2.97;;;1.30;;
66567;SDS011;53422;49.296;6.900;2023-04-24T00:04:41;2.17;;;0.90;;
66567;SDS011;53422;49.296;6.900;2023-04-24T00:07:09;3.30;;;0.85;;
66567;SDS011;53422;49.296;6.900;2023-04-24T00:09:39;2.28;;;0.57;;
66567;SDS011;53422;49.296;6.900;2023-04-24T00:12:04;2.08;;;0.60;;
66567;SDS011;53422;49.296;6.900;2023-04-24T00:14:30;2.60;;;0.60;;
66567;SDS011;53422;49.296;6.900;2023-04-24T00:16:56;4.55;;;0.50;;
66567;SDS011;53422;49.296;6.900;2023-04-24T00:19:22;1.35;;;0.65;;
66567;SDS011;53422;49.296;6.900;2023-04-24T00:21:47;1.00;;;0.60;;
66567;SDS011;53422;49.296;6.900;2023-04-24T00:24:16;1.10;;;0.63;;
66567;SDS011;53422;49.296;6.900;2023-04-24T00:26:43;0.70;;;0.40;;
66567;SDS011;53422;49.296;6.900;2023-04-24T00:29:09;1.17;;;0.55;;
66567;SDS011;53422;49.296;6.900;2023-04-24T00:31:35;1.48;;;0.70;;
66567;SDS011;53422;49.296;6.900;2023-04-24T00:34:01;6.20;;;0.68;;
66567;SDS011;53422;49.296;6.900;2023-04-24T00:36:27;1.00;;;0.60;;
66567;SDS011;53422;49.296;6.900;2023-04-24T00:38:53;1.25;;;0.57;;
66567;SDS011;53422;49.296;6.900;2023-04-24T00:41:20;1.45;;;0.50;;
66567;SDS011;53422;49.296;6.900;2023-04-24T00:43:46;0.82;;;0.38;;
66567;SDS011;53422;49.296;6.900;2023-04-24T00:46:13;1.10;;;0.60;;
66567;SDS011;53422;49.296;6.900;2023-04-24T00:48:39;0.70;;;0.47;;
66567;SDS011;53422;49.296;6.900;2023-04-24T00:51:05;1.13;;;0.52;;
66567;SDS011;53422;49.296;6.900;2023-04-24T00:53:31;1.05;;;0.43;;
66567;SDS011;53422;49.296;6.900;2023-04-24T00:55:57;1.85;;;0.80;;
66567;SDS011;53422;49.296;6.900;2023-04-24T00:58:24;0.93;;;0.45;;
66567;SDS011;53422;49.296;6.900;2023-04-24T01:00:51;2.55;;;0.50;;
66567;SDS011;53422;49.296;6.900;2023-04-24T01:03:22;1.80;;;0.60;;
66567;SDS011;53422;49.296;6.900;2023-04-24T01:05:51;1.15;;;0.60;;
66567;SDS011;53422;49.296;6.900;2023-04-24T01:10:45;1.70;;;0.80;;
66567;SDS011;53422;49.296;6.900;2023-04-24T01:13:12;1.48;;;0.50;;
66567;SDS011;53422;49.296;6.900;2023-04-24T01:15:38;1.10;;;0.55;;
66567;SDS011;53422;49.296;6.900;2023-04-24T01:18:04;1.10;;;0.63;;
66567;SDS011;53422;49.296;6.900;2023-04-24T01:20:30;1.88;;;0.82;;
66567;SDS011;53422;49.296;6.900;2023-04-24T01:22:57;2.50;;;1.17;;
66567;SDS011;53422;49.296;6.900;2023-04-24T01:25:23;2.38;;;0.68;;
66567;SDS011;53422;49.296;6.900;2023-04-24T01:27:50;1.52;;;0.70;;
66567;SDS011;53422;49.296;6.900;2023-04-24T01:30:17;1.77;;;0.75;;
66567;SDS011;53422;49.296;6.900;2023-04-24T01:32:43;2.75;;;0.85;;
66567;SDS011;53422;49.296;6.900;2023-04-24T01:35:10;2.60;;;0.95;;
66567;SDS011;53422;49.296;6.900;2023-04-24T01:37:36;3.38;;;0.90;;
66567;SDS011;53422;49.296;6.900;2023-04-24T01:40:05;2.47;;;0.95;;
66567;SDS011;53422;49.296;6.900;2023-04-24T01:42:32;0.82;;;0.60;;
66567;SDS011;53422;49.296;6.900;2023-04-24T01:44:59;2.13;;;1.00;;
66567;SDS011;53422;49.296;6.900;2023-04-24T01:47:25;1.23;;;0.70;;
66567;SDS011;53422;49.296;6.900;2023-04-24T01:49:51;2.15;;;1.10;;
66567;SDS011;53422;49.296;6.900;2023-04-24T01:52:17;1.70;;;0.88;;
66567;SDS011;53422;49.296;6.900;2023-04-24T01:54:43;1.50;;;0.85;;
66567;SDS011;53422;49.296;6.900;2023-04-24T01:57:09;2.90;;;1.30;;
66567;SDS011;53422;49.296;6.900;2023-04-24T01:59:35;1.85;;;0.88;;
66567;SDS011;53422;49.296;6.900;2023-04-24T02:02:01;2.15;;;1.20;;
66567;SDS011;53422;49.296;6.900;2023-04-24T02:04:27;2.60;;;1.20;;
66567;SDS011;53422;49.296;6.900;2023-04-24T02:06:53;3.88;;;1.00;;
66567;SDS011;53422;49.296;6.900;2023-04-24T02:09:19;2.08;;;0.80;;
66567;SDS011;53422;49.296;6.900;2023-04-24T02:11:45;4.10;;;1.00;;
66567;SDS011;53422;49.296;6.900;2023-04-24T02:14:10;1.75;;;1.00;;
66567;SDS011;53422;49.296;6.900;2023-04-24T02:16:36;3.70;;;1.00;;
66567;SDS011;53422;49.296;6.900;2023-04-24T02:19:02;1.98;;;1.08;;
66567;SDS011;53422;49.296;6.900;2023-04-24T02:21:28;2.88;;;1.38;;
66567;SDS011;53422;49.296;6.900;2023-04-24T02:23:54;3.50;;;1.23;;
66567;SDS011;53422;49.296;6.900;2023-04-24T02:26:19;1.92;;;1.00;;
66567;SDS011;53422;49.296;6.900;2023-04-24T02:28:45;2.13;;;1.30;;
66567;SDS011;53422;49.296;6.900;2023-04-24T02:31:11;4.75;;;1.40;;
66567;SDS011;53422;49.296;6.900;2023-04-24T02:33:36;2.58;;;1.50;;
66567;SDS011;53422;49.296;6.900;2023-04-24T02:36:02;2.75;;;1.33;;
66567;SDS011;53422;49.296;6.900;2023-04-24T02:38:28;4.05;;;1.80;;
66567;SDS011;53422;49.296;6.900;2023-04-24T02:40:54;3.05;;;1.40;;
66567;SDS011;53422;49.296;6.900;2023-04-24T02:43:20;3.83;;;1.80;;
66567;SDS011;53422;49.296;6.900;2023-04-24T02:45:46;3.35;;;1.73;;
66567;SDS011;53422;49.296;6.900;2023-04-24T02:48:11;3.50;;;1.48;;
66567;SDS011;53422;49.296;6.900;2023-04-24T02:50:37;3.67;;;1.48;;
66567;SDS011;53422;49.296;6.900;2023-04-24T02:53:03;5.38;;;1.50;;
66567;SDS011;53422;49.296;6.900;2023-04-24T02:55:28;2.70;;;1.60;;
66567;SDS011;53422;49.296;6.900;2023-04-24T02:57:54;5.13;;;1.48;;
66567;SDS011;53422;49.296;6.900;2023-04-24T03:00:20;4.90;;;2.03;;
66567;SDS011;53422;49.296;6.900;2023-04-24T03:02:46;3.88;;;1.65;;
66567;SDS011;53422;49.296;6.900;2023-04-24T03:05:11;4.45;;;2.05;;
66567;SDS011;53422;49.296;6.900;2023-04-24T03:07:37;4.65;;;1.88;;
66567;SDS011;53422;49.296;6.900;2023-04-24T03:10:03;3.28;;;1.40;;
66567;SDS011;53422;49.296;6.900;2023-04-24T03:12:30;3.25;;;1.63;;
66567;SDS011;53422;49.296;6.900;2023-04-24T03:14:56;2.97;;;1.60;;
66567;SDS011;53422;49.296;6.900;2023-04-24T03:17:22;5.60;;;2.15;;
66567;SDS011;53422;49.296;6.900;2023-04-24T03:19:48;3.90;;;1.85;;
66567;SDS011;53422;49.296;6.900;2023-04-24T03:22:14;4.13;;;2.17;;
66567;SDS011;53422;49.296;6.900;2023-04-24T03:24:40;4.35;;;1.77;;
66567;SDS011;53422;49.296;6.900;2023-04-24T03:27:05;4.03;;;1.80;;
66567;SDS011;53422;49.296;6.900;2023-04-24T03:29:31;4.35;;;1.98;;
66567;SDS011;53422;49.296;6.900;2023-04-24T03:31:56;4.28;;;1.90;;
66567;SDS011;53422;49.296;6.900;2023-04-24T03:34:22;3.30;;;1.73;;
66567;SDS011;53422;49.296;6.900;2023-04-24T03:36:48;4.75;;;1.92;;
66567;SDS011;53422;49.296;6.900;2023-04-24T03:39:13;3.42;;;1.60;;
66567;SDS011;53422;49.296;6.900;2023-04-24T03:41:39;3.63;;;1.70;;
66567;SDS011;53422;49.296;6.900;2023-04-24T03:44:05;4.25;;;2.15;;
66567;SDS011;53422;49.296;6.900;2023-04-24T03:46:30;5.47;;;2.38;;
66567;SDS011;53422;49.296;6.900;2023-04-24T03:48:56;3.30;;;1.65;;
66567;SDS011;53422;49.296;6.900;2023-04-24T03:51:21;4.43;;;1.75;;
66567;SDS011;53422;49.296;6.900;2023-04-24T03:53:48;4.28;;;2.05;;
66567;SDS011;53422;49.296;6.900;2023-04-24T03:56:14;4.22;;;1.73;;
66567;SDS011;53422;49.296;6.900;2023-04-24T03:58:39;6.28;;;2.08;;
66567;SDS011;53422;49.296;6.900;2023-04-24T04:01:05;7.38;;;2.60;;
66567;SDS011;53422;49.296;6.900;2023-04-24T04:03:31;6.15;;;2.30;;
66567;SDS011;53422;49.296;6.900;2023-04-24T04:05:57;5.80;;;2.42;;
66567;SDS011;53422;49.296;6.900;2023-04-24T04:08:23;4.97;;;1.38;;
66567;SDS011;53422;49.296;6.900;2023-04-24T04:10:48;6.82;;;2.28;;
66567;SDS011;53422;49.296;6.900;2023-04-24T04:13:14;4.85;;;2.30;;
66567;SDS011;53422;49.296;6.900;2023-04-24T04:15:40;4.07;;;1.75;;
66567;SDS011;53422;49.296;6.900;2023-04-24T04:18:05;4.93;;;2.03;;
66567;SDS011;53422;49.296;6.900;2023-04-24T04:20:31;4.13;;;2.33;;
66567;SDS011;53422;49.296;6.900;2023-04-24T04:22:57;4.15;;;1.90;;
66567;SDS011;53422;49.296;6.900;2023-04-24T04:25:22;3.40;;;1.90;;
66567;SDS011;53422;49.296;6.900;2023-04-24T04:27:48;2.92;;;1.77;;
66567;SDS011;53422;49.296;6.900;2023-04-24T04:30:14;3.75;;;1.52;;
66567;SDS011;53422;49.296;6.900;2023-04-24T04:32:40;5.45;;;2.25;;
66567;SDS011;53422;49.296;6.900;2023-04-24T04:35:06;5.97;;;2.22;;
66567;SDS011;53422;49.296;6.900;2023-04-24T04:37:32;3.35;;;1.98;;
66567;SDS011;53422;49.296;6.900;2023-04-24T04:39:58;3.65;;;1.85;;
66567;SDS011;53422;49.296;6.900;2023-04-24T04:42:25;7.30;;;2.15;;
66567;SDS011;53422;49.296;6.900;2023-04-24T04:44:51;4.50;;;1.80;;
66567;SDS011;53422;49.296;6.900;2023-04-24T04:47:17;5.57;;;1.90;;
66567;SDS011;53422;49.296;6.900;2023-04-24T04:49:46;2.65;;;1.48;;
66567;SDS011;53422;49.296;6.900;2023-04-24T04:52:13;3.33;;;1.70;;
66567;SDS011;53422;49.296;6.900;2023-04-24T04:54:38;3.97;;;2.10;;
66567;SDS011;53422;49.296;6.900;2023-04-24T04:57:04;3.53;;;1.75;;
66567;SDS011;53422;49.296;6.900;2023-04-24T04:59:30;4.40;;;1.75;;
66567;SDS011;53422;49.296;6.900;2023-04-24T05:01:56;2.38;;;0.98;;
66567;SDS011;53422;49.296;6.900;2023-04-24T05:04:22;4.28;;;1.88;;
66567;SDS011;53422;49.296;6.900;2023-04-24T05:06:47;5.22;;;1.90;;
66567;SDS011;53422;49.296;6.900;2023-04-24T05:09:13;3.70;;;1.80;;
66567;SDS011;53422;49.296;6.900;2023-04-24T05:11:39;6.63;;;2.10;;
66567;SDS011;53422;49.296;6.900;2023-04-24T05:14:04;3.85;;;2.00;;
66567;SDS011;53422;49.296;6.900;2023-04-24T05:16:30;3.97;;;1.88;;
66567;SDS011;53422;49.296;6.900;2023-04-24T05:18:56;4.82;;;2.05;;
66567;SDS011;53422;49.296;6.900;2023-04-24T05:21:22;4.28;;;2.13;;
66567;SDS011;53422;49.296;6.900;2023-04-24T05:23:47;4.93;;;1.83;;
66567;SDS011;53422;49.296;6.900;2023-04-24T05:26:13;3.28;;;2.10;;
66567;SDS011;53422;49.296;6.900;2023-04-24T05:28:40;5.25;;;2.05;;
66567;SDS011;53422;49.296;6.900;2023-04-24T05:31:06;4.90;;;2.03;;
66567;SDS011;53422;49.296;6.900;2023-04-24T05:33:31;3.20;;;2.20;;
66567;SDS011;53422;49.296;6.900;2023-04-24T05:35:57;6.43;;;2.03;;
66567;SDS011;53422;49.296;6.900;2023-04-24T05:38:23;4.25;;;2.08;;
66567;SDS011;53422;49.296;6.900;2023-04-24T05:40:49;6.60;;;1.70;;
66567;SDS011;53422;49.296;6.900;2023-04-24T05:43:14;5.13;;;2.55;;
66567;SDS011;53422;49.296;6.900;2023-04-24T05:45:40;3.90;;;1.65;;
66567;SDS011;53422;49.296;6.900;2023-04-24T05:48:06;3.53;;;2.05;;
66567;SDS011;53422;49.296;6.900;2023-04-24T05:50:31;3.33;;;1.83;;
66567;SDS011;53422;49.296;6.900;2023-04-24T05:52:57;4.60;;;1.95;;
66567;SDS011;53422;49.296;6.900;2023-04-24T05:55:27;4.28;;;2.35;;
66567;SDS011;53422;49.296;6.900;2023-04-24T05:57:55;4.45;;;1.90;;
66567;SDS011;53422;49.296;6.900;2023-04-24T06:00:21;4.13;;;2.00;;
66567;SDS011;53422;49.296;6.900;2023-04-24T06:02:47;4.05;;;1.95;;
66567;SDS011;53422;49.296;6.900;2023-04-24T06:05:12;5.05;;;1.95;;
66567;SDS011;53422;49.296;6.900;2023-04-24T06:07:38;4.75;;;2.10;;
66567;SDS011;53422;49.296;6.900;2023-04-24T06:10:05;3.63;;;1.92;;
66567;SDS011;53422;49.296;6.900;2023-04-24T06:12:31;4.88;;;1.85;;
66567;SDS011;53422;49.296;6.900;2023-04-24T06:14:57;3.55;;;1.90;;
66567;SDS011;53422;49.296;6.900;2023-04-24T06:17:22;5.70;;;2.13;;
66567;SDS011;53422;49.296;6.900;2023-04-24T06:19:48;4.18;;;1.90;;
66567;SDS011;53422;49.296;6.900;2023-04-24T06:22:13;5.00;;;2.10;;
66567;SDS011;53422;49.296;6.900;2023-04-24T06:24:40;4.43;;;1.77;;
66567;SDS011;53422;49.296;6.900;2023-04-24T06:27:06;5.25;;;2.20;;
66567;SDS011;53422;49.296;6.900;2023-04-24T06:29:32;3.65;;;2.22;;
66567;SDS011;53422;49.296;6.900;2023-04-24T06:31:58;2.60;;;1.60;;
66567;SDS011;53422;49.296;6.900;2023-04-24T06:34:24;3.08;;;1.60;;
66567;SDS011;53422;49.296;6.900;2023-04-24T06:36:50;4.57;;;2.35;;
66567;SDS011;53422;49.296;6.900;2023-04-24T06:39:15;2.33;;;1.42;;
66567;SDS011;53422;49.296;6.900;2023-04-24T06:41:41;3.13;;;1.25;;
66567;SDS011;53422;49.296;6.900;2023-04-24T06:44:07;3.75;;;1.75;;
66567;SDS011;53422;49.296;6.900;2023-04-24T06:46:32;2.45;;;1.38;;
66567;SDS011;53422;49.296;6.900;2023-04-24T06:48:58;5.18;;;1.95;;
66567;SDS011;53422;49.296;6.900;2023-04-24T06:51:25;3.72;;;1.85;;
66567;SDS011;53422;49.296;6.900;2023-04-24T06:53:53;4.07;;;1.92;;
66567;SDS011;53422;49.296;6.900;2023-04-24T06:56:19;3.13;;;1.50;;
66567;SDS011;53422;49.296;6.900;2023-04-24T06:58:45;3.05;;;1.63;;
66567;SDS011;53422;49.296;6.900;2023-04-24T07:01:11;4.47;;;1.50;;
66567;SDS011;53422;49.296;6.900;2023-04-24T07:03:37;2.55;;;1.48;;
66567;SDS011;53422;49.296;6.900;2023-04-24T07:06:03;4.80;;;2.00;;
66567;SDS011;53422;49.296;6.900;2023-04-24T07:08:30;2.28;;;1.30;;
66567;SDS011;53422;49.296;6.900;2023-04-24T07:10:56;3.50;;;1.60;;
66567;SDS011;53422;49.296;6.900;2023-04-24T07:13:22;4.90;;;1.75;;
66567;SDS011;53422;49.296;6.900;2023-04-24T07:15:48;5.07;;;1.67;;
66567;SDS011;53422;49.296;6.900;2023-04-24T07:18:19;3.97;;;1.50;;
66567;SDS011;53422;49.296;6.900;2023-04-24T07:20:45;3.97;;;1.52;;
66567;SDS011;53422;49.296;6.900;2023-04-24T07:23:11;3.80;;;1.70;;
66567;SDS011;53422;49.296;6.900;2023-04-24T07:25:37;3.83;;;1.50;;
66567;SDS011;53422;49.296;6.900;2023-04-24T07:28:03;4.15;;;1.90;;
66567;SDS011;53422;49.296;6.900;2023-04-24T07:30:29;4.05;;;1.70;;
66567;SDS011;53422;49.296;6.900;2023-04-24T07:32:57;5.88;;;2.33;;
66567;SDS011;53422;49.296;6.900;2023-04-24T07:35:23;2.95;;;1.65;;
66567;SDS011;53422;49.296;6.900;2023-04-24T07:37:51;4.05;;;2.00;;
66567;SDS011;53422;49.296;6.900;2023-04-24T07:40:20;4.60;;;2.03;;
66567;SDS011;53422;49.296;6.900;2023-04-24T07:42:46;4.75;;;2.40;;
66567;SDS011;53422;49.296;6.900;2023-04-24T07:45:13;4.85;;;1.90;;
66567;SDS011;53422;49.296;6.900;2023-04-24T07:47:40;4.25;;;2.00;;
66567;SDS011;53422;49.296;6.900;2023-04-24T07:50:08;3.80;;;1.52;;
66567;SDS011;53422;49.296;6.900;2023-04-24T07:52:35;4.45;;;2.38;;
66567;SDS011;53422;49.296;6.900;2023-04-24T07:55:00;4.47;;;2.10;;
66567;SDS011;53422;49.296;6.900;2023-04-24T07:57:27;6.25;;;2.55;;
66567;SDS011;53422;49.296;6.900;2023-04-24T07:59:53;3.50;;;2.10;;
66567;SDS011;53422;49.296;6.900;2023-04-24T08:02:19;4.18;;;2.22;;
66567;SDS011;53422;49.296;6.900;2023-04-24T08:04:46;7.53;;;2.88;;
66567;SDS011;53422;49.296;6.900;2023-04-24T08:07:12;6.70;;;2.55;;
66567;SDS011;53422;49.296;6.900;2023-04-24T08:09:38;6.85;;;2.28;;
66567;SDS011;53422;49.296;6.900;2023-04-24T08:12:03;5.72;;;2.80;;
66567;SDS011;53422;49.296;6.900;2023-04-24T08:14:29;6.15;;;2.33;;
66567;SDS011;53422;49.296;6.900;2023-04-24T08:16:55;4.72;;;2.25;;
66567;SDS011;53422;49.296;6.900;2023-04-24T08:19:21;4.13;;;2.25;;
66567;SDS011;53422;49.296;6.900;2023-04-24T08:21:47;5.63;;;2.55;;
66567;SDS011;53422;49.296;6.900;2023-04-24T08:24:12;4.38;;;2.78;;
66567;SDS011;53422;49.296;6.900;2023-04-24T08:26:38;6.88;;;3.42;;
66567;SDS011;53422;49.296;6.900;2023-04-24T08:29:04;3.10;;;1.55;;
66567;SDS011;53422;49.296;6.900;2023-04-24T08:31:31;6.32;;;2.28;;
66567;SDS011;53422;49.296;6.900;2023-04-24T08:33:57;5.32;;;2.60;;
66567;SDS011;53422;49.296;6.900;2023-04-24T08:36:24;6.93;;;3.00;;
66567;SDS011;53422;49.296;6.900;2023-04-24T08:38:51;5.90;;;2.30;;
66567;SDS011;53422;49.296;6.900;2023-04-24T08:41:17;5.53;;;2.92;;
66567;SDS011;53422;49.296;6.900;2023-04-24T08:43:45;4.53;;;2.42;;
66567;SDS011;53422;49.296;6.900;2023-04-24T08:46:11;4.78;;;1.92;;
66567;SDS011;53422;49.296;6.900;2023-04-24T08:48:38;5.85;;;2.38;;
66567;SDS011;53422;49.296;6.900;2023-04-24T08:51:06;8.82;;;3.58;;
66567;SDS011;53422;49.296;6.900;2023-04-24T08:53:33;6.97;;;2.53;;
66567;SDS011;53422;49.296;6.900;2023-04-24T08:56:00;3.85;;;2.40;;
66567;SDS011;53422;49.296;6.900;2023-04-24T08:58:26;5.50;;;2.97;;
66567;SDS011;53422;49.296;6.900;2023-04-24T09:00:56;7.50;;;2.90;;
66567;SDS011;53422;49.296;6.900;2023-04-24T09:03:22;8.77;;;3.33;;
66567;SDS011;53422;49.296;6.900;2023-04-24T09:05:49;5.75;;;2.88;;
66567;SDS011;53422;49.296;6.900;2023-04-24T09:08:18;4.40;;;2.58;;
66567;SDS011;53422;49.296;6.900;2023-04-24T09:10:45;7.82;;;3.03;;
66567;SDS011;53422;49.296;6.900;2023-04-24T09:13:11;4.88;;;2.60;;
66567;SDS011;53422;49.296;6.900;2023-04-24T09:15:39;7.22;;;3.10;;
66567;SDS011;53422;49.296;6.900;2023-04-24T09:18:06;5.20;;;2.58;;
66567;SDS011;53422;49.296;6.900;2023-04-24T09:20:32;8.85;;;3.13;;
66567;SDS011;53422;49.296;6.900;2023-04-24T09:22:58;5.95;;;2.42;;
66567;SDS011;53422;49.296;6.900;2023-04-24T09:25:33;5.53;;;2.40;;
66567;SDS011;53422;49.296;6.900;2023-04-24T09:28:03;5.90;;;2.42;;
66567;SDS011;53422;49.296;6.900;2023-04-24T09:30:31;5.32;;;2.60;;
66567;SDS011;53422;49.296;6.900;2023-04-24T09:33:13;4.47;;;2.00;;
66567;SDS011;53422;49.296;6.900;2023-04-24T09:35:40;4.78;;;2.53;;
66567;SDS011;53422;49.296;6.900;2023-04-24T09:38:07;5.65;;;2.50;;
66567;SDS011;53422;49.296;6.900;2023-04-24T09:40:34;4.07;;;2.35;;
66567;SDS011;53422;49.296;6.900;2023-04-24T09:43:00;7.03;;;2.88;;
66567;SDS011;53422;49.296;6.900;2023-04-24T09:45:28;6.00;;;2.88;;
66567;SDS011;53422;49.296;6.900;2023-04-24T09:48:00;5.00;;;2.60;;
66567;SDS011;53422;49.296;6.900;2023-04-24T09:50:26;5.82;;;2.90;;
66567;SDS011;53422;49.296;6.900;2023-04-24T09:52:56;7.28;;;2.80;;
66567;SDS011;53422;49.296;6.900;2023-04-24T09:55:23;5.70;;;2.80;;
66567;SDS011;53422;49.296;6.900;2023-04-24T09:57:50;12.57;;;2.88;;
66567;SDS011;53422;49.296;6.900;2023-04-24T10:02:49;7.47;;;2.78;;
66567;SDS011;53422;49.296;6.900;2023-04-24T10:05:15;7.30;;;3.13;;
66567;SDS011;53422;49.296;6.900;2023-04-24T10:07:42;6.97;;;2.90;;
66567;SDS011;53422;49.296;6.900;2023-04-24T10:10:09;6.22;;;3.20;;
66567;SDS011;53422;49.296;6.900;2023-04-24T10:12:35;6.38;;;2.88;;
66567;SDS011;53422;49.296;6.900;2023-04-24T10:15:01;5.50;;;2.78;;
66567;SDS011;53422;49.296;6.900;2023-04-24T10:17:28;5.57;;;2.63;;
66567;SDS011;53422;49.296;6.900;2023-04-24T10:19:54;6.25;;;3.05;;
66567;SDS011;53422;49.296;6.900;2023-04-24T10:22:20;4.57;;;1.52;;
66567;SDS011;53422;49.296;6.900;2023-04-24T10:24:47;4.75;;;2.88;;
66567;SDS011;53422;49.296;6.900;2023-04-24T10:27:15;7.68;;;2.22;;
66567;SDS011;53422;49.296;6.900;2023-04-24T10:29:42;6.80;;;2.15;;
66567;SDS011;53422;49.296;6.900;2023-04-24T10:32:09;6.47;;;3.05;;
66567;SDS011;53422;49.296;6.900;2023-04-24T10:34:36;7.95;;;3.33;;
66567;SDS011;53422;49.296;6.900;2023-04-24T10:37:02;6.88;;;3.30;;
66567;SDS011;53422;49.296;6.900;2023-04-24T10:39:28;6.88;;;3.42;;
66567;SDS011;53422;49.296;6.900;2023-04-24T10:41:55;5.75;;;2.50;;
66567;SDS011;53422;49.296;6.900;2023-04-24T10:44:22;5.32;;;2.72;;
66567;SDS011;53422;49.296;6.900;2023-04-24T10:46:52;7.68;;;2.92;;
66567;SDS011;53422;49.296;6.900;2023-04-24T10:49:19;6.07;;;2.70;;
66567;SDS011;53422;49.296;6.900;2023-04-24T10:51:59;5.65;;;2.90;;
66567;SDS011;53422;49.296;6.900;2023-04-24T10:54:33;5.50;;;2.65;;
66567;SDS011;53422;49.296;6.900;2023-04-24T10:59:49;4.90;;;2.80;;
66567;SDS011;53422;49.296;6.900;2023-04-24T11:02:15;7.43;;;3.10;;
66567;SDS011;53422;49.296;6.900;2023-04-24T11:04:42;5.25;;;2.70;;
66567;SDS011;53422;49.296;6.900;2023-04-24T11:07:09;5.68;;;2.63;;
66567;SDS011;53422;49.296;6.900;2023-04-24T11:09:35;6.63;;;3.30;;
66567;SDS011;53422;49.296;6.900;2023-04-24T11:12:05;4.85;;;2.45;;
66567;SDS011;53422;49.296;6.900;2023-04-24T11:17:36;7.82;;;2.85;;
66567;SDS011;53422;49.296;6.900;2023-04-24T11:22:32;6.03;;;2.70;;
66567;SDS011;53422;49.296;6.900;2023-04-24T11:25:03;7.10;;;2.47;;
66567;SDS011;53422;49.296;6.900;2023-04-24T11:27:38;6.43;;;2.63;;
66567;SDS011;53422;49.296;6.900;2023-04-24T11:30:06;4.88;;;2.72;;
66567;SDS011;53422;49.296;6.900;2023-04-24T11:40:11;6.32;;;2.83;;
66567;SDS011;53422;49.296;6.900;2023-04-24T11:42:38;6.90;;;2.83;;
66567;SDS011;53422;49.296;6.900;2023-04-24T11:45:12;7.75;;;3.00;;
66567;SDS011;53422;49.296;6.900;2023-04-24T11:47:39;6.20;;;2.78;;
66567;SDS011;53422;49.296;6.900;2023-04-24T11:50:07;5.43;;;2.70;;
66567;SDS011;53422;49.296;6.900;2023-04-24T11:52:37;6.00;;;2.95;;
66567;SDS011;53422;49.296;6.900;2023-04-24T11:55:12;4.10;;;2.70;;
66567;SDS011;53422;49.296;6.900;2023-04-24T11:57:52;6.35;;;3.13;;
66567;SDS011;53422;49.296;6.900;2023-04-24T12:00:23;8.68;;;2.35;;
66567;SDS011;53422;49.296;6.900;2023-04-24T12:02:50;7.20;;;3.20;;
66567;SDS011;53422;49.296;6.900;2023-04-24T12:05:23;5.10;;;2.70;;
66567;SDS011;53422;49.296;6.900;2023-04-24T12:07:51;7.00;;;3.30;;
66567;SDS011;53422;49.296;6.900;2023-04-24T12:10:21;5.82;;;2.38;;
66567;SDS011;53422;49.296;6.900;2023-04-24T12:12:49;5.32;;;3.03;;
66567;SDS011;53422;49.296;6.900;2023-04-24T12:15:16;6.95;;;2.55;;
66567;SDS011;53422;49.296;6.900;2023-04-24T12:17:43;5.65;;;2.22;;
66567;SDS011;53422;49.296;6.900;2023-04-24T12:20:09;7.43;;;2.75;;
66567;SDS011;53422;49.296;6.900;2023-04-24T12:25:19;6.15;;;2.75;;
66567;SDS011;53422;49.296;6.900;2023-04-24T12:27:51;4.95;;;2.75;;
66567;SDS011;53422;49.296;6.900;2023-04-24T12:30:18;4.70;;;2.58;;
66567;SDS011;53422;49.296;6.900;2023-04-24T12:32:48;5.60;;;2.47;;
66567;SDS011;53422;49.296;6.900;2023-04-24T12:35:22;6.72;;;3.17;;
66567;SDS011;53422;49.296;6.900;2023-04-24T12:37:49;5.80;;;3.28;;
66567;SDS011;53422;49.296;6.900;2023-04-24T12:40:16;8.68;;;3.15;;
66567;SDS011;53422;49.296;6.900;2023-04-24T12:42:43;8.05;;;2.90;;
66567;SDS011;53422;49.296;6.900;2023-04-24T12:45:10;5.50;;;2.70;;
66567;SDS011;53422;49.296;6.900;2023-04-24T12:47:39;4.50;;;2.50;;
66567;SDS011;53422;49.296;6.900;2023-04-24T12:50:09;4.93;;;2.85;;
66567;SDS011;53422;49.296;6.900;2023-04-24T12:52:36;5.10;;;2.35;;
66567;SDS011;53422;49.296;6.900;2023-04-24T12:55:04;5.85;;;2.90;;
66567;SDS011;53422;49.296;6.900;2023-04-24T12:57:33;5.30;;;3.03;;
66567;SDS011;53422;49.296;6.900;2023-04-24T12:59:59;8.40;;;2.92;;
66567;SDS011;53422;49.296;6.900;2023-04-24T13:02:26;6.65;;;2.72;;
66567;SDS011;53422;49.296;6.900;2023-04-24T13:04:54;7.60;;;2.97;;
66567;SDS011;53422;49.296;6.900;2023-04-24T13:07:20;5.68;;;2.72;;
66567;SDS011;53422;49.296;6.900;2023-04-24T13:09:47;5.20;;;2.60;;
66567;SDS011;53422;49.296;6.900;2023-04-24T13:12:13;4.90;;;2.67;;
66567;SDS011;53422;49.296;6.900;2023-04-24T13:14:39;3.80;;;1.95;;
66567;SDS011;53422;49.296;6.900;2023-04-24T13:17:05;4.10;;;1.70;;
66567;SDS011;53422;49.296;6.900;2023-04-24T13:19:39;3.70;;;1.95;;
66567;SDS011;53422;49.296;6.900;2023-04-24T13:22:06;3.90;;;2.03;;
66567;SDS011;53422;49.296;6.900;2023-04-24T13:24:32;3.53;;;1.60;;
66567;SDS011;53422;49.296;6.900;2023-04-24T13:26:58;4.78;;;1.88;;
66567;SDS011;53422;49.296;6.900;2023-04-24T13:29:25;4.68;;;1.67;;
66567;SDS011;53422;49.296;6.900;2023-04-24T13:31:51;3.97;;;1.80;;
66567;SDS011;53422;49.296;6.900;2023-04-24T13:34:19;3.42;;;1.40;;
66567;SDS011;53422;49.296;6.900;2023-04-24T13:36:45;3.78;;;1.90;;
66567;SDS011;53422;49.296;6.900;2023-04-24T13:39:11;3.72;;;2.00;;
66567;SDS011;53422;49.296;6.900;2023-04-24T13:41:36;3.42;;;1.83;;
66567;SDS011;53422;49.296;6.900;2023-04-24T13:44:02;4.10;;;2.10;;
66567;SDS011;53422;49.296;6.900;2023-04-24T13:46:29;4.57;;;1.83;;
66567;SDS011;53422;49.296;6.900;2023-04-24T13:48:55;6.07;;;2.70;;
66567;SDS011;53422;49.296;6.900;2023-04-24T13:51:22;4.18;;;2.60;;
66567;SDS011;53422;49.296;6.900;2023-04-24T13:53:48;5.43;;;2.90;;
66567;SDS011;53422;49.296;6.900;2023-04-24T13:56:14;5.28;;;2.38;;
66567;SDS011;53422;49.296;6.900;2023-04-24T13:58:40;5.03;;;2.25;;
66567;SDS011;53422;49.296;6.900;2023-04-24T14:01:06;4.60;;;2.47;;
66567;SDS011;53422;49.296;6.900;2023-04-24T14:03:32;5.53;;;2.65;;
66567;SDS011;53422;49.296;6.900;2023-04-24T14:05:59;5.30;;;2.42;;
66567;SDS011;53422;49.296;6.900;2023-04-24T14:08:24;5.60;;;2.72;;
66567;SDS011;53422;49.296;6.900;2023-04-24T14:10:50;6.10;;;3.15;;
66567;SDS011;53422;49.296;6.900;2023-04-24T14:13:16;9.77;;;3.10;;
66567;SDS011;53422;49.296;6.900;2023-04-24T14:15:42;5.18;;;2.67;;
66567;SDS011;53422;49.296;6.900;2023-04-24T14:18:07;5.25;;;2.88;;
66567;SDS011;53422;49.296;6.900;2023-04-24T14:20:33;5.90;;;2.50;;
66567;SDS011;53422;49.296;6.900;2023-04-24T14:22:59;6.60;;;2.58;;
66567;SDS011;53422;49.296;6.900;2023-04-24T14:25:25;5.13;;;2.30;;
66567;SDS011;53422;49.296;6.900;2023-04-24T14:27:51;4.65;;;2.45;;
66567;SDS011;53422;49.296;6.900;2023-04-24T14:30:17;7.03;;;2.58;;
66567;SDS011;53422;49.296;6.900;2023-04-24T14:32:43;5.07;;;2.42;;
66567;SDS011;53422;49.296;6.900;2023-04-24T14:35:09;3.90;;;1.63;;
66567;SDS011;53422;49.296;6.900;2023-04-24T14:37:34;4.80;;;2.00;;
66567;SDS011;53422;49.296;6.900;2023-04-24T14:40:01;5.00;;;2.15;;
66567;SDS011;53422;49.296;6.900;2023-04-24T14:42:28;5.65;;;2.40;;
66567;SDS011;53422;49.296;6.900;2023-04-24T14:44:54;3.88;;;2.33;;
66567;SDS011;53422;49.296;6.900;2023-04-24T14:47:20;6.85;;;2.47;;
66567;SDS011;53422;49.296;6.900;2023-04-24T14:49:48;3.45;;;1.67;;
66567;SDS011;53422;49.296;6.900;2023-04-24T14:52:14;3.42;;;1.50;;
66567;SDS011;53422;49.296;6.900;2023-04-24T14:54:40;2.70;;;1.65;;
66567;SDS011;53422;49.296;6.900;2023-04-24T14:57:06;2.30;;;1.30;;
66567;SDS011;53422;49.296;6.900;2023-04-24T14:59:32;2.70;;;1.35;;
66567;SDS011;53422;49.296;6.900;2023-04-24T15:01:58;3.30;;;2.00;;
66567;SDS011;53422;49.296;6.900;2023-04-24T15:04:24;5.25;;;1.88;;
66567;SDS011;53422;49.296;6.900;2023-04-24T15:06:50;3.38;;;1.58;;
66567;SDS011;53422;49.296;6.900;2023-04-24T15:09:16;4.72;;;1.65;;